sensor_id;sensor_type;location;lat;lon;timestamp;P1;durP1;ratioP1;P2;durP2;ratioP2
66546;SDS011;53400;50.364;14.874;2024-02-14T00:00:58;20.52;;;11.15;;
66546;SDS011;53400;50.364;14.874;2024-02-14T00:03:37;20.98;;;11.57;;
66546;SDS011;53400;50.364;14.874;2024-02-14T00:06:04;20.60;;;11.13;;
66546;SDS011;53400;50.364;14.874;2024-02-14T00:08:31;18.83;;;10.82;;
66546;SDS011;53400;50.364;14.874;2024-02-14T00:10:59;18.17;;;10.65;;
66546;SDS011;53400;50.364;14.874;2024-02-14T00:13:25;18.55;;;10.70;;
66546;SDS011;53400;50.364;14.874;2024-02-14T00:15:54;20.33;;;11.55;;
66546;SDS011;53400;50.364;14.874;2024-02-14T00:18:22;19.00;;;10.55;;
66546;SDS011;53400;50.364;14.874;2024-02-14T00:20:48;20.92;;;10.35;;
66546;SDS011;53400;50.364;14.874;2024-02-14T00:23:14;18.73;;;10.85;;
66546;SDS011;53400;50.364;14.874;2024-02-14T00:25:40;18.98;;;10.98;;
66546;SDS011;53400;50.364;14.874;2024-02-14T00:28:08;17.80;;;10.27;;
66546;SDS011;53400;50.364;14.874;2024-02-14T00:30:35;20.38;;;11.05;;
66546;SDS011;53400;50.364;14.874;2024-02-14T00:33:01;29.63;;;11.85;;
66546;SDS011;53400;50.364;14.874;2024-02-14T00:35:27;19.20;;;10.30;;
66546;SDS011;53400;50.364;14.874;2024-02-14T00:37:53;19.08;;;10.85;;
66546;SDS011;53400;50.364;14.874;2024-02-14T00:40:19;20.30;;;10.70;;
66546;SDS011;53400;50.364;14.874;2024-02-14T00:42:47;27.90;;;11.48;;
66546;SDS011;53400;50.364;14.874;2024-02-14T00:45:15;20.38;;;10.95;;
66546;SDS011;53400;50.364;14.874;2024-02-14T00:47:41;21.05;;;11.25;;
66546;SDS011;53400;50.364;14.874;2024-02-14T00:50:08;22.23;;;11.63;;
66546;SDS011;53400;50.364;14.874;2024-02-14T00:52:34;18.88;;;10.43;;
66546;SDS011;53400;50.364;14.874;2024-02-14T00:55:08;22.15;;;12.10;;
66546;SDS011;53400;50.364;14.874;2024-02-14T00:57:34;24.48;;;13.88;;
66546;SDS011;53400;50.364;14.874;2024-02-14T01:00:01;27.17;;;14.25;;
66546;SDS011;53400;50.364;14.874;2024-02-14T01:02:28;26.52;;;13.65;;
66546;SDS011;53400;50.364;14.874;2024-02-14T01:04:55;27.48;;;13.85;;
66546;SDS011;53400;50.364;14.874;2024-02-14T01:07:23;26.50;;;14.10;;
66546;SDS011;53400;50.364;14.874;2024-02-14T01:09:50;27.33;;;14.55;;
66546;SDS011;53400;50.364;14.874;2024-02-14T01:12:16;24.67;;;13.60;;
66546;SDS011;53400;50.364;14.874;2024-02-14T01:14:42;25.27;;;13.30;;
66546;SDS011;53400;50.364;14.874;2024-02-14T01:17:11;27.48;;;14.63;;
66546;SDS011;53400;50.364;14.874;2024-02-14T01:19:39;26.98;;;14.02;;
66546;SDS011;53400;50.364;14.874;2024-02-14T01:22:05;22.75;;;13.48;;
66546;SDS011;53400;50.364;14.874;2024-02-14T01:24:34;22.67;;;13.32;;
66546;SDS011;53400;50.364;14.874;2024-02-14T01:27:03;21.38;;;10.82;;
66546;SDS011;53400;50.364;14.874;2024-02-14T01:29:37;20.35;;;10.98;;
66546;SDS011;53400;50.364;14.874;2024-02-14T01:32:04;26.05;;;13.32;;
66546;SDS011;53400;50.364;14.874;2024-02-14T01:34:30;25.27;;;14.48;;
66546;SDS011;53400;50.364;14.874;2024-02-14T01:36:58;28.98;;;15.45;;
66546;SDS011;53400;50.364;14.874;2024-02-14T01:39:27;28.35;;;15.15;;
66546;SDS011;53400;50.364;14.874;2024-02-14T01:41:53;23.30;;;14.63;;
66546;SDS011;53400;50.364;14.874;2024-02-14T01:44:19;21.05;;;11.90;;
66546;SDS011;53400;50.364;14.874;2024-02-14T01:46:46;20.13;;;11.27;;
66546;SDS011;53400;50.364;14.874;2024-02-14T01:49:12;21.80;;;10.95;;
66546;SDS011;53400;50.364;14.874;2024-02-14T01:51:40;23.50;;;12.95;;
66546;SDS011;53400;50.364;14.874;2024-02-14T01:54:16;26.13;;;15.75;;
66546;SDS011;53400;50.364;14.874;2024-02-14T01:56:43;28.15;;;15.35;;
66546;SDS011;53400;50.364;14.874;2024-02-14T01:59:10;31.80;;;16.27;;
66546;SDS011;53400;50.364;14.874;2024-02-14T02:01:42;26.77;;;15.90;;
66546;SDS011;53400;50.364;14.874;2024-02-14T02:04:10;27.10;;;15.55;;
66546;SDS011;53400;50.364;14.874;2024-02-14T02:06:36;27.65;;;14.52;;
66546;SDS011;53400;50.364;14.874;2024-02-14T02:09:03;25.88;;;13.00;;
66546;SDS011;53400;50.364;14.874;2024-02-14T02:11:30;26.95;;;14.77;;
66546;SDS011;53400;50.364;14.874;2024-02-14T02:13:58;24.63;;;13.18;;
66546;SDS011;53400;50.364;14.874;2024-02-14T02:16:27;26.88;;;15.25;;
66546;SDS011;53400;50.364;14.874;2024-02-14T02:18:53;23.02;;;13.70;;
66546;SDS011;53400;50.364;14.874;2024-02-14T02:21:19;25.40;;;14.57;;
66546;SDS011;53400;50.364;14.874;2024-02-14T02:23:51;28.27;;;15.02;;
66546;SDS011;53400;50.364;14.874;2024-02-14T02:26:18;23.45;;;14.30;;
66546;SDS011;53400;50.364;14.874;2024-02-14T02:28:47;24.67;;;14.50;;
66546;SDS011;53400;50.364;14.874;2024-02-14T02:31:13;29.67;;;16.25;;
66546;SDS011;53400;50.364;14.874;2024-02-14T02:33:39;29.45;;;15.50;;
66546;SDS011;53400;50.364;14.874;2024-02-14T02:36:05;25.42;;;14.40;;
66546;SDS011;53400;50.364;14.874;2024-02-14T02:38:33;24.33;;;13.85;;
66546;SDS011;53400;50.364;14.874;2024-02-14T02:41:03;29.52;;;15.45;;
66546;SDS011;53400;50.364;14.874;2024-02-14T02:43:32;27.25;;;14.55;;
66546;SDS011;53400;50.364;14.874;2024-02-14T02:45:58;26.25;;;14.00;;
66546;SDS011;53400;50.364;14.874;2024-02-14T02:48:24;28.52;;;15.25;;
66546;SDS011;53400;50.364;14.874;2024-02-14T02:50:50;25.15;;;13.82;;
66546;SDS011;53400;50.364;14.874;2024-02-14T02:53:18;28.45;;;15.10;;
66546;SDS011;53400;50.364;14.874;2024-02-14T02:55:44;28.90;;;14.93;;
66546;SDS011;53400;50.364;14.874;2024-02-14T02:58:12;25.80;;;14.57;;
66546;SDS011;53400;50.364;14.874;2024-02-14T03:00:39;30.23;;;15.63;;
66546;SDS011;53400;50.364;14.874;2024-02-14T03:03:07;25.63;;;14.60;;
66546;SDS011;53400;50.364;14.874;2024-02-14T03:05:33;25.25;;;14.23;;
66546;SDS011;53400;50.364;14.874;2024-02-14T03:08:00;29.02;;;15.88;;
66546;SDS011;53400;50.364;14.874;2024-02-14T03:10:26;26.73;;;14.88;;
66546;SDS011;53400;50.364;14.874;2024-02-14T03:12:59;23.80;;;14.10;;
66546;SDS011;53400;50.364;14.874;2024-02-14T03:15:41;27.80;;;14.65;;
66546;SDS011;53400;50.364;14.874;2024-02-14T03:18:08;28.05;;;14.75;;
66546;SDS011;53400;50.364;14.874;2024-02-14T03:20:35;30.35;;;16.92;;
66546;SDS011;53400;50.364;14.874;2024-02-14T03:23:01;30.70;;;17.15;;
66546;SDS011;53400;50.364;14.874;2024-02-14T03:25:29;32.78;;;19.30;;
66546;SDS011;53400;50.364;14.874;2024-02-14T03:27:56;35.55;;;18.95;;
66546;SDS011;53400;50.364;14.874;2024-02-14T03:30:22;35.88;;;18.92;;
66546;SDS011;53400;50.364;14.874;2024-02-14T03:32:50;37.28;;;19.10;;
66546;SDS011;53400;50.364;14.874;2024-02-14T03:35:20;36.75;;;19.80;;
66546;SDS011;53400;50.364;14.874;2024-02-14T03:37:52;39.90;;;17.73;;
66546;SDS011;53400;50.364;14.874;2024-02-14T03:40:18;26.08;;;17.15;;
66546;SDS011;53400;50.364;14.874;2024-02-14T03:42:48;34.67;;;18.42;;
66546;SDS011;53400;50.364;14.874;2024-02-14T03:45:14;48.85;;;28.92;;
66546;SDS011;53400;50.364;14.874;2024-02-14T03:47:46;39.15;;;20.92;;
66546;SDS011;53400;50.364;14.874;2024-02-14T03:50:16;34.75;;;18.73;;
66546;SDS011;53400;50.364;14.874;2024-02-14T03:52:43;36.53;;;19.73;;
66546;SDS011;53400;50.364;14.874;2024-02-14T03:55:09;36.65;;;19.77;;
66546;SDS011;53400;50.364;14.874;2024-02-14T03:57:39;37.35;;;20.25;;
66546;SDS011;53400;50.364;14.874;2024-02-14T04:00:05;38.50;;;20.27;;
66546;SDS011;53400;50.364;14.874;2024-02-14T04:02:39;44.05;;;21.20;;
66546;SDS011;53400;50.364;14.874;2024-02-14T04:05:07;47.67;;;21.80;;
66546;SDS011;53400;50.364;14.874;2024-02-14T04:07:33;36.67;;;18.08;;
66546;SDS011;53400;50.364;14.874;2024-02-14T04:10:05;33.10;;;18.38;;
66546;SDS011;53400;50.364;14.874;2024-02-14T04:12:45;44.53;;;21.60;;
66546;SDS011;53400;50.364;14.874;2024-02-14T04:15:11;42.38;;;21.42;;
66546;SDS011;53400;50.364;14.874;2024-02-14T04:17:38;43.25;;;24.08;;
66546;SDS011;53400;50.364;14.874;2024-02-14T04:20:10;37.65;;;21.80;;
66546;SDS011;53400;50.364;14.874;2024-02-14T04:22:43;36.88;;;21.30;;
66546;SDS011;53400;50.364;14.874;2024-02-14T04:25:09;41.05;;;20.00;;
66546;SDS011;53400;50.364;14.874;2024-02-14T04:27:36;45.72;;;21.40;;
66546;SDS011;53400;50.364;14.874;2024-02-14T04:30:03;36.50;;;20.60;;
66546;SDS011;53400;50.364;14.874;2024-02-14T04:32:32;41.28;;;22.75;;
66546;SDS011;53400;50.364;14.874;2024-02-14T04:34:58;27.98;;;16.88;;
66546;SDS011;53400;50.364;14.874;2024-02-14T04:37:26;39.25;;;23.20;;
66546;SDS011;53400;50.364;14.874;2024-02-14T04:39:52;40.33;;;23.92;;
66546;SDS011;53400;50.364;14.874;2024-02-14T04:44:47;31.55;;;18.27;;
66546;SDS011;53400;50.364;14.874;2024-02-14T04:47:14;30.38;;;16.45;;
66546;SDS011;53400;50.364;14.874;2024-02-14T04:49:40;30.95;;;17.10;;
66546;SDS011;53400;50.364;14.874;2024-02-14T04:52:06;32.33;;;17.08;;
66546;SDS011;53400;50.364;14.874;2024-02-14T04:54:35;35.88;;;19.45;;
66546;SDS011;53400;50.364;14.874;2024-02-14T04:57:04;32.40;;;17.42;;
66546;SDS011;53400;50.364;14.874;2024-02-14T04:59:30;31.80;;;19.00;;
66546;SDS011;53400;50.364;14.874;2024-02-14T05:02:03;34.17;;;18.27;;
66546;SDS011;53400;50.364;14.874;2024-02-14T05:04:29;31.33;;;18.02;;
66546;SDS011;53400;50.364;14.874;2024-02-14T05:07:01;35.50;;;18.88;;
66546;SDS011;53400;50.364;14.874;2024-02-14T05:09:29;32.67;;;17.50;;
66546;SDS011;53400;50.364;14.874;2024-02-14T05:11:57;35.40;;;19.50;;
66546;SDS011;53400;50.364;14.874;2024-02-14T05:14:23;36.70;;;20.20;;
66546;SDS011;53400;50.364;14.874;2024-02-14T05:16:49;33.75;;;18.83;;
66546;SDS011;53400;50.364;14.874;2024-02-14T05:19:16;31.33;;;16.10;;
66546;SDS011;53400;50.364;14.874;2024-02-14T05:21:54;33.47;;;18.50;;
66546;SDS011;53400;50.364;14.874;2024-02-14T05:24:20;31.88;;;18.42;;
66546;SDS011;53400;50.364;14.874;2024-02-14T05:26:47;36.90;;;19.15;;
66546;SDS011;53400;50.364;14.874;2024-02-14T05:29:14;34.03;;;17.77;;
66546;SDS011;53400;50.364;14.874;2024-02-14T05:31:43;36.17;;;18.85;;
66546;SDS011;53400;50.364;14.874;2024-02-14T05:34:10;36.20;;;18.75;;
66546;SDS011;53400;50.364;14.874;2024-02-14T05:36:37;33.50;;;18.77;;
66546;SDS011;53400;50.364;14.874;2024-02-14T05:39:03;32.67;;;18.75;;
66546;SDS011;53400;50.364;14.874;2024-02-14T05:41:30;34.13;;;18.20;;
66546;SDS011;53400;50.364;14.874;2024-02-14T05:44:03;33.67;;;17.35;;
66546;SDS011;53400;50.364;14.874;2024-02-14T05:46:31;28.35;;;15.52;;
66546;SDS011;53400;50.364;14.874;2024-02-14T05:48:57;27.08;;;15.45;;
66546;SDS011;53400;50.364;14.874;2024-02-14T05:51:23;34.58;;;17.77;;
66546;SDS011;53400;50.364;14.874;2024-02-14T05:53:54;31.95;;;16.77;;
66546;SDS011;53400;50.364;14.874;2024-02-14T05:56:26;35.28;;;18.45;;
66546;SDS011;53400;50.364;14.874;2024-02-14T05:58:52;30.75;;;17.10;;
66546;SDS011;53400;50.364;14.874;2024-02-14T06:01:18;32.97;;;17.17;;
66546;SDS011;53400;50.364;14.874;2024-02-14T06:03:45;34.83;;;18.08;;
66546;SDS011;53400;50.364;14.874;2024-02-14T06:06:12;32.30;;;18.52;;
66546;SDS011;53400;50.364;14.874;2024-02-14T06:08:46;30.60;;;17.88;;
66546;SDS011;53400;50.364;14.874;2024-02-14T06:11:12;32.33;;;17.92;;
66546;SDS011;53400;50.364;14.874;2024-02-14T06:13:39;26.10;;;15.50;;
66546;SDS011;53400;50.364;14.874;2024-02-14T06:16:05;30.35;;;16.08;;
66546;SDS011;53400;50.364;14.874;2024-02-14T06:18:33;34.10;;;16.50;;
66546;SDS011;53400;50.364;14.874;2024-02-14T06:21:02;27.65;;;14.95;;
66546;SDS011;53400;50.364;14.874;2024-02-14T06:23:28;32.20;;;16.45;;
66546;SDS011;53400;50.364;14.874;2024-02-14T06:25:54;26.52;;;15.55;;
66546;SDS011;53400;50.364;14.874;2024-02-14T06:28:20;25.92;;;14.77;;
66546;SDS011;53400;50.364;14.874;2024-02-14T06:30:46;29.75;;;15.98;;
66546;SDS011;53400;50.364;14.874;2024-02-14T06:33:14;27.15;;;14.98;;
66546;SDS011;53400;50.364;14.874;2024-02-14T06:35:40;28.90;;;16.48;;
66546;SDS011;53400;50.364;14.874;2024-02-14T06:38:08;28.90;;;14.63;;
66546;SDS011;53400;50.364;14.874;2024-02-14T06:40:34;33.33;;;16.15;;
66546;SDS011;53400;50.364;14.874;2024-02-14T06:43:00;29.70;;;16.00;;
66546;SDS011;53400;50.364;14.874;2024-02-14T06:45:26;30.75;;;15.68;;
66546;SDS011;53400;50.364;14.874;2024-02-14T06:47:55;28.05;;;16.10;;
66546;SDS011;53400;50.364;14.874;2024-02-14T06:50:21;33.80;;;17.25;;
66546;SDS011;53400;50.364;14.874;2024-02-14T06:52:47;29.13;;;15.70;;
66546;SDS011;53400;50.364;14.874;2024-02-14T06:55:26;28.15;;;15.93;;
66546;SDS011;53400;50.364;14.874;2024-02-14T06:57:52;31.75;;;17.02;;
66546;SDS011;53400;50.364;14.874;2024-02-14T07:00:20;32.53;;;17.30;;
66546;SDS011;53400;50.364;14.874;2024-02-14T07:02:46;30.45;;;16.92;;
66546;SDS011;53400;50.364;14.874;2024-02-14T07:05:14;31.02;;;17.65;;
66546;SDS011;53400;50.364;14.874;2024-02-14T07:07:43;26.25;;;14.18;;
66546;SDS011;53400;50.364;14.874;2024-02-14T07:10:09;29.80;;;14.80;;
66546;SDS011;53400;50.364;14.874;2024-02-14T07:12:37;21.88;;;10.77;;
66546;SDS011;53400;50.364;14.874;2024-02-14T07:15:04;31.48;;;15.85;;
66546;SDS011;53400;50.364;14.874;2024-02-14T07:17:33;32.97;;;17.52;;
66546;SDS011;53400;50.364;14.874;2024-02-14T07:20:06;33.73;;;17.83;;
66546;SDS011;53400;50.364;14.874;2024-02-14T07:22:34;34.53;;;16.85;;
66546;SDS011;53400;50.364;14.874;2024-02-14T07:25:01;34.55;;;19.55;;
66546;SDS011;53400;50.364;14.874;2024-02-14T07:27:30;31.35;;;15.23;;
66546;SDS011;53400;50.364;14.874;2024-02-14T07:30:10;32.38;;;17.50;;
66546;SDS011;53400;50.364;14.874;2024-02-14T07:32:37;28.20;;;15.57;;
66546;SDS011;53400;50.364;14.874;2024-02-14T07:35:04;30.52;;;16.17;;
66546;SDS011;53400;50.364;14.874;2024-02-14T07:37:30;30.52;;;16.52;;
66546;SDS011;53400;50.364;14.874;2024-02-14T07:39:57;32.60;;;17.60;;
66546;SDS011;53400;50.364;14.874;2024-02-14T07:42:26;29.77;;;14.75;;
66546;SDS011;53400;50.364;14.874;2024-02-14T07:44:53;39.05;;;17.25;;
66546;SDS011;53400;50.364;14.874;2024-02-14T07:47:21;32.05;;;17.05;;
66546;SDS011;53400;50.364;14.874;2024-02-14T07:49:47;33.35;;;18.45;;
66546;SDS011;53400;50.364;14.874;2024-02-14T07:52:13;29.80;;;15.00;;
66546;SDS011;53400;50.364;14.874;2024-02-14T07:54:40;30.48;;;17.10;;
66546;SDS011;53400;50.364;14.874;2024-02-14T07:57:06;33.47;;;16.92;;
66546;SDS011;53400;50.364;14.874;2024-02-14T07:59:32;34.42;;;17.60;;
66546;SDS011;53400;50.364;14.874;2024-02-14T08:02:00;28.27;;;14.60;;
66546;SDS011;53400;50.364;14.874;2024-02-14T08:04:26;28.77;;;13.73;;
66546;SDS011;53400;50.364;14.874;2024-02-14T08:06:52;32.30;;;17.08;;
66546;SDS011;53400;50.364;14.874;2024-02-14T08:09:19;29.35;;;17.10;;
66546;SDS011;53400;50.364;14.874;2024-02-14T08:11:44;28.73;;;16.55;;
66546;SDS011;53400;50.364;14.874;2024-02-14T08:14:10;27.92;;;14.25;;
66546;SDS011;53400;50.364;14.874;2024-02-14T08:16:40;30.85;;;16.55;;
66546;SDS011;53400;50.364;14.874;2024-02-14T08:19:08;27.63;;;14.38;;
66546;SDS011;53400;50.364;14.874;2024-02-14T08:21:33;28.92;;;15.05;;
66546;SDS011;53400;50.364;14.874;2024-02-14T08:24:00;23.83;;;11.80;;
66546;SDS011;53400;50.364;14.874;2024-02-14T08:26:26;23.48;;;11.82;;
66546;SDS011;53400;50.364;14.874;2024-02-14T08:28:55;25.98;;;13.98;;
66546;SDS011;53400;50.364;14.874;2024-02-14T08:31:23;24.77;;;12.98;;
66546;SDS011;53400;50.364;14.874;2024-02-14T08:33:49;25.13;;;13.70;;
66546;SDS011;53400;50.364;14.874;2024-02-14T08:36:16;25.25;;;14.15;;
66546;SDS011;53400;50.364;14.874;2024-02-14T08:41:30;25.20;;;13.95;;
66546;SDS011;53400;50.364;14.874;2024-02-14T08:43:56;24.98;;;14.10;;
66546;SDS011;53400;50.364;14.874;2024-02-14T08:46:22;26.90;;;14.80;;
66546;SDS011;53400;50.364;14.874;2024-02-14T08:48:49;25.25;;;13.75;;
66546;SDS011;53400;50.364;14.874;2024-02-14T08:51:19;25.40;;;13.95;;
66546;SDS011;53400;50.364;14.874;2024-02-14T08:53:46;21.30;;;12.57;;
66546;SDS011;53400;50.364;14.874;2024-02-14T08:56:12;22.17;;;12.50;;
66546;SDS011;53400;50.364;14.874;2024-02-14T08:58:38;21.55;;;13.38;;
66546;SDS011;53400;50.364;14.874;2024-02-14T09:01:04;27.95;;;14.10;;
66546;SDS011;53400;50.364;14.874;2024-02-14T09:03:34;22.88;;;13.80;;
66546;SDS011;53400;50.364;14.874;2024-02-14T09:06:00;24.20;;;14.05;;
66546;SDS011;53400;50.364;14.874;2024-02-14T09:08:30;26.15;;;13.63;;
66546;SDS011;53400;50.364;14.874;2024-02-14T09:10:56;24.08;;;13.15;;
66546;SDS011;53400;50.364;14.874;2024-02-14T09:13:28;24.95;;;14.27;;
66546;SDS011;53400;50.364;14.874;2024-02-14T09:15:59;24.20;;;12.82;;
66546;SDS011;53400;50.364;14.874;2024-02-14T09:18:25;20.25;;;11.60;;
66546;SDS011;53400;50.364;14.874;2024-02-14T09:20:51;20.02;;;11.70;;
66546;SDS011;53400;50.364;14.874;2024-02-14T09:23:18;20.20;;;11.68;;
66546;SDS011;53400;50.364;14.874;2024-02-14T09:25:50;24.00;;;13.07;;
66546;SDS011;53400;50.364;14.874;2024-02-14T09:28:24;20.67;;;10.77;;
66546;SDS011;53400;50.364;14.874;2024-02-14T09:30:50;21.80;;;11.82;;
66546;SDS011;53400;50.364;14.874;2024-02-14T09:33:17;19.73;;;11.40;;
66546;SDS011;53400;50.364;14.874;2024-02-14T09:35:43;20.90;;;11.82;;
66546;SDS011;53400;50.364;14.874;2024-02-14T09:38:34;19.38;;;11.18;;
66546;SDS011;53400;50.364;14.874;2024-02-14T09:41:03;18.60;;;11.52;;
66546;SDS011;53400;50.364;14.874;2024-02-14T09:43:36;18.77;;;11.32;;
66546;SDS011;53400;50.364;14.874;2024-02-14T09:46:06;18.65;;;10.90;;
66546;SDS011;53400;50.364;14.874;2024-02-14T09:48:39;17.33;;;10.10;;
66546;SDS011;53400;50.364;14.874;2024-02-14T09:51:09;19.60;;;10.57;;
66546;SDS011;53400;50.364;14.874;2024-02-14T09:53:37;17.45;;;9.82;;
66546;SDS011;53400;50.364;14.874;2024-02-14T09:59:04;19.40;;;9.63;;
66546;SDS011;53400;50.364;14.874;2024-02-14T10:01:31;17.10;;;9.52;;
66546;SDS011;53400;50.364;14.874;2024-02-14T10:03:58;15.45;;;10.02;;
66546;SDS011;53400;50.364;14.874;2024-02-14T10:06:26;14.38;;;8.63;;
66546;SDS011;53400;50.364;14.874;2024-02-14T10:08:59;16.60;;;9.38;;
66546;SDS011;53400;50.364;14.874;2024-02-14T10:11:26;18.60;;;10.15;;
66546;SDS011;53400;50.364;14.874;2024-02-14T10:13:53;19.30;;;11.23;;
66546;SDS011;53400;50.364;14.874;2024-02-14T10:16:22;18.63;;;10.75;;
66546;SDS011;53400;50.364;14.874;2024-02-14T10:18:49;15.85;;;9.60;;
66546;SDS011;53400;50.364;14.874;2024-02-14T10:21:16;17.02;;;9.35;;
66546;SDS011;53400;50.364;14.874;2024-02-14T10:23:48;19.13;;;10.00;;
66546;SDS011;53400;50.364;14.874;2024-02-14T10:26:19;17.35;;;10.35;;
66546;SDS011;53400;50.364;14.874;2024-02-14T10:31:28;18.87;;;10.97;;
66546;SDS011;53400;50.364;14.874;2024-02-14T10:33:55;18.75;;;9.98;;
66546;SDS011;53400;50.364;14.874;2024-02-14T10:36:21;21.48;;;11.15;;
66546;SDS011;53400;50.364;14.874;2024-02-14T10:38:48;18.60;;;10.93;;
66546;SDS011;53400;50.364;14.874;2024-02-14T10:41:16;17.67;;;9.10;;
66546;SDS011;53400;50.364;14.874;2024-02-14T10:43:42;19.52;;;9.45;;
66546;SDS011;53400;50.364;14.874;2024-02-14T10:46:12;19.83;;;10.52;;
66546;SDS011;53400;50.364;14.874;2024-02-14T10:48:45;18.73;;;10.52;;
66546;SDS011;53400;50.364;14.874;2024-02-14T10:51:13;18.52;;;10.25;;
66546;SDS011;53400;50.364;14.874;2024-02-14T10:53:45;20.20;;;11.50;;
66546;SDS011;53400;50.364;14.874;2024-02-14T10:56:16;19.20;;;11.32;;
66546;SDS011;53400;50.364;14.874;2024-02-14T10:58:45;20.42;;;11.10;;
66546;SDS011;53400;50.364;14.874;2024-02-14T11:01:13;17.42;;;11.27;;
66546;SDS011;53400;50.364;14.874;2024-02-14T11:03:45;19.13;;;10.88;;
66546;SDS011;53400;50.364;14.874;2024-02-14T11:06:15;18.48;;;11.02;;
66546;SDS011;53400;50.364;14.874;2024-02-14T11:08:53;18.20;;;11.10;;
66546;SDS011;53400;50.364;14.874;2024-02-14T11:11:27;16.85;;;10.38;;
66546;SDS011;53400;50.364;14.874;2024-02-14T11:14:17;17.77;;;9.82;;
66546;SDS011;53400;50.364;14.874;2024-02-14T11:16:54;16.73;;;9.82;;
66546;SDS011;53400;50.364;14.874;2024-02-14T11:19:29;17.45;;;10.10;;
66546;SDS011;53400;50.364;14.874;2024-02-14T11:22:10;17.60;;;10.40;;
66546;SDS011;53400;50.364;14.874;2024-02-14T11:24:41;14.90;;;8.98;;
66546;SDS011;53400;50.364;14.874;2024-02-14T11:27:17;18.30;;;9.30;;
66546;SDS011;53400;50.364;14.874;2024-02-14T11:29:56;15.27;;;8.82;;
66546;SDS011;53400;50.364;14.874;2024-02-14T11:32:29;16.08;;;8.52;;
66546;SDS011;53400;50.364;14.874;2024-02-14T11:34:57;13.50;;;8.00;;
66546;SDS011;53400;50.364;14.874;2024-02-14T11:37:27;12.52;;;7.97;;
66546;SDS011;53400;50.364;14.874;2024-02-14T11:39:53;14.80;;;7.72;;
66546;SDS011;53400;50.364;14.874;2024-02-14T11:42:25;14.48;;;8.10;;
66546;SDS011;53400;50.364;14.874;2024-02-14T11:44:52;13.90;;;9.00;;
66546;SDS011;53400;50.364;14.874;2024-02-14T11:47:26;14.35;;;8.15;;
66546;SDS011;53400;50.364;14.874;2024-02-14T11:49:55;13.93;;;8.45;;
66546;SDS011;53400;50.364;14.874;2024-02-14T11:52:27;12.98;;;7.47;;
66546;SDS011;53400;50.364;14.874;2024-02-14T11:54:59;14.63;;;7.90;;
66546;SDS011;53400;50.364;14.874;2024-02-14T11:57:27;14.07;;;7.93;;
66546;SDS011;53400;50.364;14.874;2024-02-14T11:59:57;12.32;;;7.20;;
66546;SDS011;53400;50.364;14.874;2024-02-14T12:02:24;12.80;;;7.22;;
66546;SDS011;53400;50.364;14.874;2024-02-14T12:05:03;15.05;;;7.97;;
66546;SDS011;53400;50.364;14.874;2024-02-14T12:07:31;11.77;;;7.28;;
66546;SDS011;53400;50.364;14.874;2024-02-14T12:09:58;14.52;;;7.95;;
66546;SDS011;53400;50.364;14.874;2024-02-14T12:12:27;12.85;;;7.70;;
66546;SDS011;53400;50.364;14.874;2024-02-14T12:15:02;13.30;;;7.40;;
66546;SDS011;53400;50.364;14.874;2024-02-14T12:17:31;14.30;;;7.70;;
66546;SDS011;53400;50.364;14.874;2024-02-14T12:20:07;15.18;;;8.35;;
66546;SDS011;53400;50.364;14.874;2024-02-14T12:22:35;13.55;;;6.85;;
66546;SDS011;53400;50.364;14.874;2024-02-14T12:25:02;11.55;;;6.80;;
66546;SDS011;53400;50.364;14.874;2024-02-14T12:27:32;12.82;;;7.72;;
66546;SDS011;53400;50.364;14.874;2024-02-14T12:29:58;12.35;;;7.05;;
66546;SDS011;53400;50.364;14.874;2024-02-14T12:32:25;16.38;;;8.70;;
66546;SDS011;53400;50.364;14.874;2024-02-14T12:34:51;15.48;;;9.82;;
66546;SDS011;53400;50.364;14.874;2024-02-14T12:37:18;13.45;;;8.95;;
66546;SDS011;53400;50.364;14.874;2024-02-14T12:39:44;11.73;;;7.30;;
66546;SDS011;53400;50.364;14.874;2024-02-14T12:42:11;13.02;;;7.38;;
66546;SDS011;53400;50.364;14.874;2024-02-14T12:44:37;12.85;;;7.32;;
66546;SDS011;53400;50.364;14.874;2024-02-14T12:47:03;15.65;;;8.77;;
66546;SDS011;53400;50.364;14.874;2024-02-14T12:49:38;14.25;;;8.25;;
66546;SDS011;53400;50.364;14.874;2024-02-14T12:52:06;15.43;;;8.30;;
66546;SDS011;53400;50.364;14.874;2024-02-14T12:54:34;14.00;;;7.32;;
66546;SDS011;53400;50.364;14.874;2024-02-14T12:57:00;15.23;;;8.50;;
66546;SDS011;53400;50.364;14.874;2024-02-14T12:59:30;12.15;;;7.18;;
66546;SDS011;53400;50.364;14.874;2024-02-14T13:02:10;12.88;;;7.10;;
66546;SDS011;53400;50.364;14.874;2024-02-14T13:04:36;12.20;;;6.32;;
66546;SDS011;53400;50.364;14.874;2024-02-14T13:07:02;13.13;;;6.93;;
66546;SDS011;53400;50.364;14.874;2024-02-14T13:09:29;14.07;;;6.93;;
66546;SDS011;53400;50.364;14.874;2024-02-14T13:12:06;10.57;;;7.00;;
66546;SDS011;53400;50.364;14.874;2024-02-14T13:14:34;13.57;;;7.68;;
66546;SDS011;53400;50.364;14.874;2024-02-14T13:17:01;13.68;;;7.18;;
66546;SDS011;53400;50.364;14.874;2024-02-14T13:19:27;11.25;;;6.28;;
66546;SDS011;53400;50.364;14.874;2024-02-14T13:21:57;11.45;;;6.30;;
66546;SDS011;53400;50.364;14.874;2024-02-14T13:24:41;13.68;;;6.20;;
66546;SDS011;53400;50.364;14.874;2024-02-14T13:27:09;13.13;;;5.80;;
66546;SDS011;53400;50.364;14.874;2024-02-14T13:29:35;11.20;;;5.50;;
66546;SDS011;53400;50.364;14.874;2024-02-14T13:32:01;12.95;;;6.10;;
66546;SDS011;53400;50.364;14.874;2024-02-14T13:34:33;10.80;;;5.75;;
66546;SDS011;53400;50.364;14.874;2024-02-14T13:36:59;9.95;;;5.47;;
66546;SDS011;53400;50.364;14.874;2024-02-14T13:39:25;8.70;;;5.45;;
66546;SDS011;53400;50.364;14.874;2024-02-14T13:41:52;8.40;;;4.47;;
66546;SDS011;53400;50.364;14.874;2024-02-14T13:47:04;7.78;;;3.83;;
66546;SDS011;53400;50.364;14.874;2024-02-14T13:49:30;11.27;;;4.28;;
66546;SDS011;53400;50.364;14.874;2024-02-14T13:51:57;7.80;;;3.45;;
66546;SDS011;53400;50.364;14.874;2024-02-14T13:54:23;7.03;;;3.55;;
66546;SDS011;53400;50.364;14.874;2024-02-14T13:56:50;9.70;;;3.67;;
66546;SDS011;53400;50.364;14.874;2024-02-14T13:59:17;7.10;;;3.58;;
66546;SDS011;53400;50.364;14.874;2024-02-14T14:01:46;7.75;;;3.75;;
66546;SDS011;53400;50.364;14.874;2024-02-14T14:04:15;7.07;;;3.38;;
66546;SDS011;53400;50.364;14.874;2024-02-14T14:06:45;8.50;;;3.25;;
66546;SDS011;53400;50.364;14.874;2024-02-14T14:09:17;7.38;;;3.40;;
66546;SDS011;53400;50.364;14.874;2024-02-14T14:11:43;9.30;;;3.65;;
66546;SDS011;53400;50.364;14.874;2024-02-14T14:14:10;8.10;;;3.80;;
66546;SDS011;53400;50.364;14.874;2024-02-14T14:16:41;6.90;;;3.25;;
66546;SDS011;53400;50.364;14.874;2024-02-14T14:19:12;8.15;;;3.90;;
66546;SDS011;53400;50.364;14.874;2024-02-14T14:21:43;9.05;;;4.00;;
66546;SDS011;53400;50.364;14.874;2024-02-14T14:24:08;7.50;;;3.63;;
66546;SDS011;53400;50.364;14.874;2024-02-14T14:26:35;8.88;;;3.85;;
66546;SDS011;53400;50.364;14.874;2024-02-14T14:29:01;7.15;;;3.28;;
66546;SDS011;53400;50.364;14.874;2024-02-14T14:31:29;8.30;;;3.45;;
66546;SDS011;53400;50.364;14.874;2024-02-14T14:33:56;9.88;;;3.83;;